Eureka, Illinois
Current Conditions -  °F | °C
As of 6:15 AM on Monday 24 Nov 2014 (Local Time) from KC75 Reporting Station
Moderate Rain Moderate Rain  
Wind Chill: 25°   Ceiling: 1000
Heat Index: 36°   Visibility: 4mi
Dew Point: 34°   Wind: 17mph
Humidity: 92%   Direction: 270°W
Pressure: 29.23"   Gusts: 24mph
Location:  40.72°N, 89.27°W
Report Text: KC75 241215Z AUTO 27015G21KT 4SM RA SCT006 BKN010 OVC018 02/01 A2923 RMK AO2 P0003 T00200009
Loading
Personal Weather Stations






























Interactive Weather Map New forecast layout! Learn more

10-Day Weather Forecast

Advertisements
Track Severe Weather on mobile